createdAt,value
2019-05-16T00:00:11.110Z,7.50
2019-05-16T00:02:39.599Z,7.46
2019-05-16T00:05:08.817Z,7.50
2019-05-16T00:07:38.976Z,7.38
2019-05-16T00:10:08.683Z,7.38
2019-05-16T00:12:39.715Z,7.27
2019-05-16T00:15:09.166Z,7.19
2019-05-16T00:17:38.598Z,7.16
2019-05-16T00:20:09.373Z,7.29
2019-05-16T00:22:39.353Z,7.23
2019-05-16T00:25:08.767Z,7.27
2019-05-16T00:27:38.699Z,7.02
2019-05-16T00:30:08.908Z,7.08
2019-05-16T00:32:38.984Z,6.98
2019-05-16T00:35:09.226Z,7.00
2019-05-16T00:37:39.045Z,7.02
2019-05-16T00:40:09.078Z,6.98
2019-05-16T00:42:39.016Z,7.03
2019-05-16T00:45:09.121Z,6.93
2019-05-16T00:47:38.944Z,7.01
2019-05-16T00:50:08.754Z,6.89
2019-05-16T00:52:39.449Z,6.99
2019-05-16T00:55:08.924Z,6.97
2019-05-16T00:57:38.926Z,6.65
2019-05-16T01:00:09.269Z,6.72
2019-05-16T01:02:38.290Z,6.87
2019-05-16T01:05:08.540Z,6.91
2019-05-16T01:07:39.194Z,6.80
2019-05-16T01:10:09.017Z,6.87
2019-05-16T01:12:39.088Z,6.95
2019-05-16T01:15:08.199Z,6.78
2019-05-16T01:17:38.827Z,6.81
2019-05-16T01:20:08.520Z,6.63
2019-05-16T01:22:38.457Z,6.44
2019-05-16T01:25:09.465Z,6.63
2019-05-16T01:27:38.761Z,6.74
2019-05-16T01:30:09.120Z,6.90
2019-05-16T01:32:39.104Z,7.00
2019-05-16T01:35:08.501Z,6.88
2019-05-16T01:37:38.388Z,6.78
2019-05-16T01:40:08.359Z,7.08
2019-05-16T01:42:38.574Z,7.01
2019-05-16T01:45:08.636Z,6.85
2019-05-16T01:47:39.295Z,6.60
2019-05-16T01:50:08.828Z,6.64
2019-05-16T01:52:38.361Z,6.84
2019-05-16T01:55:08.305Z,6.83
2019-05-16T01:57:39.180Z,6.75
2019-05-16T02:00:08.440Z,6.67
2019-05-16T02:02:38.567Z,6.52
2019-05-16T02:05:08.305Z,6.68
2019-05-16T02:07:38.796Z,6.79
2019-05-16T02:10:08.601Z,6.84
2019-05-16T02:12:38.481Z,6.85
2019-05-16T02:15:08.184Z,6.78
2019-05-16T02:17:38.367Z,6.90
2019-05-16T02:20:08.849Z,6.75
2019-05-16T02:22:38.904Z,6.82
2019-05-16T02:25:08.150Z,6.85
2019-05-16T02:27:40.664Z,6.79
2019-05-16T02:30:11.978Z,6.50
2019-05-16T02:32:41.357Z,6.48
2019-05-16T02:35:11.889Z,6.45
2019-05-16T02:37:42.303Z,6.60
2019-05-16T02:40:11.936Z,6.78
2019-05-16T02:42:42.075Z,6.85
2019-05-16T02:45:11.257Z,6.80
2019-05-16T02:47:42.702Z,6.56
2019-05-16T02:50:12.155Z,6.65
2019-05-16T02:52:41.301Z,6.81
2019-05-16T02:55:11.584Z,6.63
2019-05-16T02:57:41.596Z,6.77
2019-05-16T03:00:12.471Z,6.82
2019-05-16T03:02:42.187Z,7.01
2019-05-16T03:05:12.247Z,7.03
2019-05-16T03:07:47.029Z,6.96
2019-05-16T03:10:14.242Z,7.14
2019-05-16T03:12:43.845Z,6.99
2019-05-16T03:15:12.493Z,6.82
2019-05-16T03:17:44.385Z,6.72
2019-05-16T03:20:13.575Z,6.82
2019-05-16T03:22:42.844Z,6.80
2019-05-16T03:25:11.992Z,6.70
2019-05-16T03:27:41.512Z,6.88
2019-05-16T03:30:15.490Z,6.80
2019-05-16T03:32:45.202Z,6.70
2019-05-16T03:35:15.407Z,6.79
2019-05-16T03:37:54.586Z,6.77
2019-05-16T03:40:14.220Z,6.83
2019-05-16T03:42:42.711Z,6.90
2019-05-16T03:45:11.312Z,6.68
2019-05-16T03:47:42.809Z,6.43
2019-05-16T03:50:11.100Z,6.55
2019-05-16T03:52:43.321Z,6.50
2019-05-16T03:55:11.075Z,6.66
2019-05-16T03:57:41.667Z,6.79
2019-05-16T04:00:11.876Z,6.84
2019-05-16T04:02:41.918Z,6.63
2019-05-16T04:05:11.676Z,6.53
2019-05-16T04:07:41.642Z,6.72
2019-05-16T04:10:11.141Z,6.78
2019-05-16T04:12:42.054Z,6.79
2019-05-16T04:15:11.640Z,6.96
2019-05-16T04:17:41.346Z,6.93
2019-05-16T04:20:11.540Z,6.80
2019-05-16T04:22:41.001Z,6.99
2019-05-16T04:25:11.339Z,6.89
2019-05-16T04:27:41.590Z,6.94
2019-05-16T04:30:11.711Z,6.97
2019-05-16T04:32:42.084Z,6.95
2019-05-16T04:35:11.407Z,7.11
2019-05-16T04:37:42.335Z,7.08
2019-05-16T04:40:12.330Z,7.02
2019-05-16T04:42:41.977Z,7.19
2019-05-16T04:45:12.358Z,7.28
2019-05-16T04:47:41.485Z,7.27
2019-05-16T04:50:11.527Z,7.19
2019-05-16T04:52:41.950Z,7.43
2019-05-16T04:55:12.178Z,7.47
2019-05-16T04:57:42.251Z,7.54
2019-05-16T05:00:11.667Z,7.58
2019-05-16T05:02:41.705Z,7.52
2019-05-16T05:05:12.489Z,7.49
2019-05-16T05:07:41.028Z,7.50
2019-05-16T05:10:11.315Z,7.28
2019-05-16T05:12:40.959Z,7.44
2019-05-16T05:15:11.778Z,7.27
2019-05-16T05:17:41.243Z,7.20
2019-05-16T05:20:10.758Z,7.30
2019-05-16T05:22:39.914Z,7.30
2019-05-16T05:25:10.829Z,7.35
2019-05-16T05:27:41.170Z,7.39
2019-05-16T05:30:10.505Z,7.40
2019-05-16T05:32:41.252Z,7.48
2019-05-16T05:35:10.530Z,7.19
2019-05-16T05:37:40.993Z,7.27
2019-05-16T05:40:10.590Z,7.18
2019-05-16T05:42:40.022Z,7.16
2019-05-16T05:45:11.111Z,7.30
2019-05-16T05:47:40.447Z,7.36
2019-05-16T05:50:11.261Z,7.31
2019-05-16T05:52:41.184Z,7.39
2019-05-16T05:55:10.695Z,7.17
2019-05-16T05:57:40.294Z,7.29
2019-05-16T06:00:09.982Z,7.41
2019-05-16T06:02:40.253Z,7.56
2019-05-16T06:05:10.672Z,7.63
2019-05-16T06:07:40.466Z,7.77
2019-05-16T06:10:10.608Z,7.68
2019-05-16T06:12:40.840Z,7.63
2019-05-16T06:15:12.632Z,7.68
2019-05-16T06:17:40.292Z,7.44
2019-05-16T06:20:14.283Z,7.80
2019-05-16T06:22:40.320Z,7.77
2019-05-16T06:25:13.450Z,7.67
2019-05-16T06:27:40.713Z,7.67
2019-05-16T06:30:11.413Z,7.75
2019-05-16T06:32:39.911Z,7.84
2019-05-16T06:35:09.801Z,7.92
2019-05-16T06:37:40.615Z,7.96
2019-05-16T06:40:10.745Z,8.19
2019-05-16T06:42:40.285Z,8.09
2019-05-16T06:45:10.333Z,8.23
2019-05-16T06:47:39.673Z,8.30
2019-05-16T06:50:11.050Z,8.19
2019-05-16T06:52:40.906Z,8.28
2019-05-16T06:55:10.151Z,8.32
2019-05-16T06:57:40.885Z,8.18
2019-05-16T07:00:10.922Z,8.31
2019-05-16T07:02:40.922Z,8.40
2019-05-16T07:05:10.146Z,8.72
2019-05-16T07:07:40.487Z,8.69
2019-05-16T07:10:09.920Z,8.88
2019-05-16T07:12:41.108Z,8.79
2019-05-16T07:15:12.259Z,8.67
2019-05-16T07:17:39.909Z,8.53
2019-05-16T07:20:10.471Z,8.85
2019-05-16T07:22:40.595Z,8.94
2019-05-16T07:25:10.661Z,8.76
2019-05-16T07:27:40.119Z,8.65
2019-05-16T07:30:10.747Z,8.54
2019-05-16T07:32:40.488Z,8.51
2019-05-16T07:35:09.877Z,8.31
2019-05-16T07:37:40.006Z,8.42
2019-05-16T07:40:19.303Z,8.55
2019-05-16T07:42:40.314Z,8.86
2019-05-16T07:45:10.774Z,8.71
2019-05-16T07:47:40.187Z,8.67
2019-05-16T07:50:10.384Z,8.99
2019-05-16T07:52:40.234Z,9.08
2019-05-16T07:55:10.777Z,9.16
2019-05-16T07:57:40.034Z,9.42
2019-05-16T08:00:09.852Z,9.44
2019-05-16T08:02:40.279Z,9.40
2019-05-16T08:05:10.249Z,8.93
2019-05-16T08:07:40.672Z,8.75
2019-05-16T08:10:10.744Z,8.90
2019-05-16T08:15:10.460Z,8.76
2019-05-16T08:17:41.528Z,8.86
2019-05-16T08:20:10.958Z,8.95
2019-05-16T08:22:41.612Z,8.66
2019-05-16T08:25:10.734Z,9.01
2019-05-16T08:27:41.377Z,9.13
2019-05-16T08:30:11.218Z,9.27
2019-05-16T08:32:42.064Z,9.50
2019-05-16T08:35:11.261Z,9.51
2019-05-16T08:37:46.013Z,9.65
2019-05-16T08:40:11.656Z,9.49
2019-05-16T08:42:41.590Z,9.71
2019-05-16T08:45:13.103Z,10.14
2019-05-16T08:47:42.545Z,10.24
2019-05-16T08:50:05.718Z,8.50
2019-05-16T08:50:14.223Z,10.28
2019-05-16T08:52:43.411Z,10.52
2019-05-16T08:55:13.351Z,10.56
2019-05-16T08:57:42.043Z,10.57
2019-05-16T09:00:14.772Z,10.50
2019-05-16T09:02:42.341Z,10.69
2019-05-16T09:05:13.661Z,11.20
2019-05-16T09:07:41.380Z,10.97
2019-05-16T09:10:42.387Z,11.02
2019-05-16T09:12:40.334Z,11.36
2019-05-16T09:15:09.055Z,11.80
2019-05-16T09:17:38.537Z,12.30
2019-05-16T09:20:07.828Z,12.46
2019-05-16T09:22:37.769Z,12.17
2019-05-16T09:25:08.031Z,11.96
2019-05-16T09:27:38.049Z,11.91
2019-05-16T09:30:07.918Z,11.46
2019-05-16T09:32:37.069Z,11.56
2019-05-16T09:35:09.392Z,11.75
2019-05-16T09:37:37.971Z,11.72
2019-05-16T09:40:08.351Z,10.96
2019-05-16T09:42:37.328Z,11.54
2019-05-16T09:45:07.724Z,11.59
2019-05-16T09:47:38.883Z,11.20
2019-05-16T09:50:08.585Z,11.11
2019-05-16T09:52:37.085Z,11.37
2019-05-16T09:55:07.092Z,11.42
2019-05-16T09:57:37.571Z,11.13
2019-05-16T10:00:09.140Z,11.04
2019-05-16T10:02:37.715Z,11.26
2019-05-16T10:05:13.444Z,11.58
2019-05-16T10:07:38.844Z,11.66
2019-05-16T10:10:09.711Z,11.93
2019-05-16T10:12:38.230Z,12.05
2019-05-16T10:15:08.441Z,12.44
2019-05-16T10:17:37.276Z,12.63
2019-05-16T10:20:08.132Z,12.99
2019-05-16T10:22:37.359Z,13.53
2019-05-16T10:25:07.181Z,13.81
2019-05-16T10:27:36.886Z,13.42
2019-05-16T10:30:09.001Z,14.01
2019-05-16T10:32:39.792Z,13.94
2019-05-16T10:35:08.606Z,13.82
2019-05-16T10:37:37.606Z,13.69
2019-05-16T10:40:07.445Z,13.51
2019-05-16T10:42:37.919Z,13.53
2019-05-16T10:45:08.642Z,13.22
2019-05-16T10:47:37.456Z,12.80
2019-05-16T10:50:09.175Z,12.72
2019-05-16T10:52:37.667Z,12.51
2019-05-16T10:55:08.195Z,12.85
2019-05-16T10:57:37.784Z,13.05
2019-05-16T11:00:18.108Z,13.44
2019-05-16T11:02:38.093Z,13.68
2019-05-16T11:05:22.705Z,13.31
2019-05-16T11:07:37.310Z,13.48
2019-05-16T11:10:07.439Z,13.95
2019-05-16T11:12:47.566Z,13.71
2019-05-16T11:15:11.558Z,13.17
2019-05-16T11:17:38.624Z,14.07
2019-05-16T11:20:07.806Z,14.57
2019-05-16T11:22:37.144Z,14.77
2019-05-16T11:25:20.843Z,14.84
2019-05-16T11:27:37.657Z,15.00
2019-05-16T11:30:07.765Z,15.20
2019-05-16T11:32:37.474Z,13.79
2019-05-16T11:35:08.071Z,13.81
2019-05-16T11:37:37.473Z,14.03
2019-05-16T11:40:08.567Z,14.19
2019-05-16T11:42:38.036Z,14.12
2019-05-16T11:45:10.365Z,14.24
2019-05-16T11:47:39.197Z,14.32
2019-05-16T11:50:08.931Z,14.23
2019-05-16T11:52:40.438Z,14.12
2019-05-16T11:55:08.331Z,13.59
2019-05-16T11:57:38.012Z,13.46
2019-05-16T12:00:09.989Z,13.80
2019-05-16T12:02:42.365Z,13.56
2019-05-16T12:05:09.032Z,13.01
2019-05-16T12:07:44.088Z,12.84
2019-05-16T12:10:08.753Z,13.15
2019-05-16T12:12:37.232Z,13.06
2019-05-16T12:15:08.590Z,13.36
2019-05-16T12:17:37.118Z,13.28
2019-05-16T12:20:09.128Z,13.26
2019-05-16T12:22:37.835Z,13.42
2019-05-16T12:25:08.140Z,13.15
2019-05-16T12:27:42.227Z,13.21
2019-05-16T12:30:13.520Z,13.43
2019-05-16T12:32:39.045Z,13.38
2019-05-16T12:35:08.683Z,13.41
2019-05-16T12:37:37.573Z,13.53
2019-05-16T12:40:07.697Z,13.60
2019-05-16T12:42:36.604Z,13.62
2019-05-16T12:45:08.871Z,14.09
2019-05-16T12:47:37.754Z,14.30
2019-05-16T12:50:12.302Z,13.86
2019-05-16T12:52:41.020Z,14.56
2019-05-16T12:55:10.172Z,13.25
2019-05-16T12:57:38.812Z,13.73
2019-05-16T13:00:14.935Z,14.28
2019-05-16T13:02:40.747Z,14.61
2019-05-16T13:05:10.221Z,14.34
2019-05-16T13:07:38.702Z,14.21
2019-05-16T13:10:08.141Z,14.05
2019-05-16T13:12:37.879Z,14.46
2019-05-16T13:15:08.151Z,14.70
2019-05-16T13:17:37.441Z,14.71
2019-05-16T13:20:07.840Z,14.59
2019-05-16T13:22:38.404Z,14.34
2019-05-16T13:25:08.343Z,14.59
2019-05-16T13:27:37.504Z,14.60
2019-05-16T13:30:10.467Z,14.96
2019-05-16T13:32:39.049Z,14.72
2019-05-16T13:35:07.986Z,14.66
2019-05-16T13:37:36.461Z,15.04
2019-05-16T13:40:07.938Z,14.61
2019-05-16T13:42:37.035Z,14.71
2019-05-16T13:45:07.543Z,14.87
2019-05-16T13:47:37.720Z,14.91
2019-05-16T13:50:12.299Z,14.97
2019-05-16T13:52:38.457Z,14.83
2019-05-16T13:55:08.890Z,14.46
2019-05-16T13:57:37.720Z,14.47
2019-05-16T14:00:08.536Z,13.91
2019-05-16T14:02:37.927Z,13.99
2019-05-16T14:05:07.798Z,14.13
2019-05-16T14:07:37.413Z,14.38
2019-05-16T14:10:07.845Z,14.38
2019-05-16T14:12:36.823Z,14.04
2019-05-16T14:15:08.159Z,13.78
2019-05-16T14:17:37.347Z,14.80
2019-05-16T14:20:14.585Z,16.29
2019-05-16T14:22:37.989Z,17.07
2019-05-16T14:25:08.190Z,17.12
2019-05-16T14:27:38.190Z,17.57
2019-05-16T14:30:09.504Z,17.52
2019-05-16T14:32:41.512Z,15.71
2019-05-16T14:35:09.125Z,15.96
2019-05-16T14:37:38.311Z,16.17
2019-05-16T14:40:07.427Z,16.49
2019-05-16T14:42:38.809Z,16.75
2019-05-16T14:45:18.027Z,16.90
2019-05-16T14:47:47.698Z,17.72
2019-05-16T14:50:16.978Z,18.85
2019-05-16T14:52:47.339Z,17.98
2019-05-16T14:55:18.546Z,17.72
2019-05-16T14:57:47.323Z,17.14
2019-05-16T15:00:18.358Z,16.83
2019-05-16T15:02:48.044Z,15.79
2019-05-16T15:05:17.024Z,14.82
2019-05-16T15:07:48.081Z,14.85
2019-05-16T15:10:16.535Z,14.19
2019-05-16T15:12:46.750Z,14.16
2019-05-16T15:15:23.292Z,14.81
2019-05-16T15:17:47.545Z,15.23
2019-05-16T15:20:18.289Z,15.51
2019-05-16T15:22:47.253Z,16.18
2019-05-16T15:25:17.514Z,16.92
2019-05-16T15:27:47.803Z,17.31
2019-05-16T15:30:18.338Z,16.62
2019-05-16T15:32:48.106Z,15.72
2019-05-16T15:35:18.249Z,15.60
2019-05-16T15:37:48.234Z,14.79
2019-05-16T15:40:17.867Z,14.53
2019-05-16T15:42:46.567Z,14.33
2019-05-16T15:45:17.868Z,14.18
2019-05-16T15:47:46.092Z,14.18
2019-05-16T15:50:17.855Z,14.30
2019-05-16T15:52:45.571Z,14.30
2019-05-16T15:55:14.390Z,14.34
2019-05-16T15:57:42.900Z,14.58
2019-05-16T16:00:12.109Z,14.56
2019-05-16T16:02:40.620Z,14.80
2019-05-16T16:05:09.834Z,14.82
2019-05-16T16:07:38.904Z,14.68
2019-05-16T16:10:08.052Z,14.01
2019-05-16T16:12:37.660Z,13.76
2019-05-16T16:15:07.707Z,14.23
2019-05-16T16:17:38.019Z,14.41
2019-05-16T16:20:10.449Z,14.28
2019-05-16T16:22:38.571Z,14.31
2019-05-16T16:25:07.490Z,14.24
2019-05-16T16:27:36.086Z,14.02
2019-05-16T16:30:07.134Z,13.64
2019-05-16T16:32:38.063Z,13.45
2019-05-16T16:35:07.954Z,13.31
2019-05-16T16:37:37.892Z,13.76
2019-05-16T16:40:11.377Z,13.73
2019-05-16T16:42:37.678Z,13.78
2019-05-16T16:45:07.469Z,13.78
2019-05-16T16:47:37.666Z,13.80
2019-05-16T16:50:08.111Z,13.83
2019-05-16T16:52:37.869Z,13.82
2019-05-16T16:55:07.943Z,13.76
2019-05-16T16:57:38.335Z,13.84
2019-05-16T17:00:11.371Z,13.88
2019-05-16T17:02:39.879Z,13.74
2019-05-16T17:05:12.622Z,13.56
2019-05-16T17:07:39.128Z,13.48
2019-05-16T17:10:08.045Z,13.86
2019-05-16T17:12:41.408Z,14.21
2019-05-16T17:15:09.319Z,14.20
2019-05-16T17:17:37.987Z,13.87
2019-05-16T17:20:08.051Z,13.42
2019-05-16T17:22:37.669Z,13.65
2019-05-16T17:25:09.445Z,13.69
2019-05-16T17:27:38.022Z,13.45
2019-05-16T17:30:16.956Z,13.15
2019-05-16T17:32:45.186Z,12.96
2019-05-16T17:35:18.365Z,12.69
2019-05-16T17:37:46.691Z,12.32
2019-05-16T17:40:17.676Z,12.47
2019-05-16T17:42:47.663Z,12.43
2019-05-16T17:45:18.219Z,12.56
2019-05-16T17:47:46.982Z,12.66
2019-05-16T17:50:17.179Z,12.80
2019-05-16T17:52:47.744Z,12.85
2019-05-16T17:55:17.205Z,12.86
2019-05-16T17:57:46.260Z,12.77
2019-05-16T18:00:25.201Z,12.73
2019-05-16T18:02:47.105Z,12.56
2019-05-16T18:05:16.986Z,12.47
2019-05-16T18:07:47.545Z,12.44
2019-05-16T18:10:18.142Z,12.39
2019-05-16T18:12:48.027Z,12.39
2019-05-16T18:15:19.748Z,12.43
2019-05-16T18:17:48.242Z,12.46
2019-05-16T18:20:17.163Z,12.31
2019-05-16T18:22:47.171Z,12.22
2019-05-16T18:25:16.408Z,12.28
2019-05-16T18:27:44.972Z,12.31
2019-05-16T18:30:16.791Z,12.28
2019-05-16T18:32:45.365Z,12.23
2019-05-16T18:35:16.574Z,12.15
2019-05-16T18:37:46.483Z,12.07
2019-05-16T18:40:16.537Z,12.00
2019-05-16T18:42:47.568Z,11.89
2019-05-16T18:45:16.525Z,11.85
2019-05-16T18:47:47.008Z,11.79
2019-05-16T18:50:18.158Z,11.59
2019-05-16T18:52:47.162Z,11.66
2019-05-16T18:55:16.893Z,11.69
2019-05-16T18:57:47.298Z,11.68
2019-05-16T19:00:17.890Z,11.64
2019-05-16T19:02:47.879Z,11.65
2019-05-16T19:05:17.277Z,11.62
2019-05-16T19:07:47.545Z,11.55
2019-05-16T19:10:17.777Z,11.51
2019-05-16T19:12:47.757Z,11.50
2019-05-16T19:15:17.835Z,11.50
2019-05-16T19:17:46.502Z,11.48
2019-05-16T19:20:17.270Z,11.45
2019-05-16T19:22:45.813Z,11.39
2019-05-16T19:25:14.656Z,11.33
2019-05-16T19:27:43.407Z,11.25
2019-05-16T19:30:12.851Z,11.15
2019-05-16T19:32:41.409Z,11.03
2019-05-16T19:35:11.161Z,10.83
2019-05-16T19:37:40.718Z,10.72
2019-05-16T19:40:09.861Z,10.65
2019-05-16T19:42:38.343Z,10.62
2019-05-16T19:45:10.404Z,10.60
2019-05-16T19:47:41.270Z,10.55
2019-05-16T19:50:09.897Z,10.53
2019-05-16T19:52:38.374Z,10.56
2019-05-16T19:55:08.325Z,10.56
2019-05-16T19:57:37.374Z,10.54
2019-05-16T20:00:08.565Z,10.58
2019-05-16T20:02:37.222Z,10.58
2019-05-16T20:05:10.480Z,10.49
2019-05-16T20:07:39.031Z,10.50
2019-05-16T20:10:09.699Z,10.50
2019-05-16T20:12:38.380Z,10.56
2019-05-16T20:15:11.630Z,10.55
2019-05-16T20:17:50.966Z,10.56
2019-05-16T20:20:09.473Z,10.60
2019-05-16T20:22:38.212Z,10.57
2019-05-16T20:25:06.948Z,10.55
2019-05-16T20:27:36.800Z,10.59
2019-05-16T20:30:09.722Z,10.62
2019-05-16T20:32:38.196Z,10.62
2019-05-16T20:35:08.878Z,10.61
2019-05-16T20:37:37.604Z,10.61
2019-05-16T20:40:09.290Z,10.65
2019-05-16T20:42:36.962Z,10.70
2019-05-16T20:45:08.106Z,10.79
2019-05-16T20:47:36.755Z,10.80
2019-05-16T20:50:09.010Z,10.81
2019-05-16T20:52:37.957Z,10.83
2019-05-16T20:55:07.489Z,10.87
2019-05-16T20:57:37.691Z,10.89
2019-05-16T21:00:09.857Z,10.87
2019-05-16T21:02:38.411Z,10.75
2019-05-16T21:05:07.455Z,10.82
2019-05-16T21:07:37.495Z,10.94
2019-05-16T21:10:08.353Z,11.02
2019-05-16T21:12:40.107Z,11.05
2019-05-16T21:15:07.997Z,11.07
2019-05-16T21:17:36.547Z,11.08
2019-05-16T21:20:07.344Z,11.07
2019-05-16T21:22:37.050Z,11.08
2019-05-16T21:25:06.593Z,11.10
2019-05-16T21:27:37.560Z,11.03
2019-05-16T21:30:07.731Z,11.07
2019-05-16T21:32:36.750Z,11.10
2019-05-16T21:35:08.736Z,11.12
2019-05-16T21:37:37.594Z,11.09
2019-05-16T21:40:08.186Z,10.85
2019-05-16T21:42:36.781Z,10.89
2019-05-16T21:45:07.600Z,10.89
2019-05-16T21:47:36.995Z,10.98
2019-05-16T21:50:08.313Z,11.04
2019-05-16T21:52:36.858Z,10.96
2019-05-16T21:55:09.456Z,10.97
2019-05-16T21:57:38.091Z,11.07
2019-05-16T22:00:32.016Z,11.06
2019-05-16T22:03:00.506Z,11.01
2019-05-16T22:05:29.147Z,11.06
2019-05-16T22:07:57.637Z,11.11
2019-05-16T22:10:26.733Z,11.00
2019-05-16T22:12:57.115Z,11.05
2019-05-16T22:15:25.659Z,11.13
2019-05-16T22:17:56.488Z,11.23
2019-05-16T22:20:26.978Z,11.19
2019-05-16T22:22:57.246Z,11.18
2019-05-16T22:25:27.131Z,11.26
2019-05-16T22:27:57.560Z,11.19
2019-05-16T22:30:27.259Z,11.19
2019-05-16T22:32:55.916Z,11.20
2019-05-16T22:35:24.497Z,11.18
2019-05-16T22:37:58.595Z,11.23
2019-05-16T22:40:23.233Z,11.23
2019-05-16T22:42:51.721Z,11.23
2019-05-16T22:45:21.940Z,11.19
2019-05-16T22:47:50.429Z,11.07
2019-05-16T22:50:19.176Z,11.05
2019-05-16T22:52:47.669Z,11.14
2019-05-16T22:55:17.890Z,11.13
2019-05-16T22:57:47.367Z,11.13
2019-05-16T23:00:26.647Z,11.17
2019-05-16T23:02:56.658Z,11.24
2019-05-16T23:05:27.318Z,11.27
2019-05-16T23:08:05.089Z,11.30
2019-05-16T23:10:27.845Z,11.11
2019-05-16T23:12:57.242Z,11.04
2019-05-16T23:15:26.569Z,11.05
2019-05-16T23:17:57.141Z,11.03
2019-05-16T23:20:27.556Z,11.03
2019-05-16T23:22:56.273Z,11.13
2019-05-16T23:25:24.842Z,11.21
2019-05-16T23:27:53.350Z,11.23
2019-05-16T23:30:21.968Z,11.31
2019-05-16T23:32:50.477Z,11.35
2019-05-16T23:35:19.026Z,11.28
2019-05-16T23:37:47.533Z,11.26
2019-05-16T23:40:16.474Z,11.31
2019-05-16T23:42:46.463Z,11.29
2019-05-16T23:45:17.125Z,11.26
2019-05-16T23:47:47.094Z,10.81
2019-05-16T23:50:17.130Z,10.80
2019-05-16T23:52:47.195Z,11.00
2019-05-16T23:55:17.427Z,11.07
2019-05-16T23:57:46.731Z,11.12
